sensor_id;sensor_type;location;lat;lon;timestamp;P1;durP1;ratioP1;P2;durP2;ratioP2
19887;SDS011;10106;51.332;12.336;2023-04-08T00:01:05;3.13;;;2.80;;
19887;SDS011;10106;51.332;12.336;2023-04-08T00:03:31;2.60;;;2.40;;
19887;SDS011;10106;51.332;12.336;2023-04-08T00:05:57;3.60;;;2.43;;
19887;SDS011;10106;51.332;12.336;2023-04-08T00:08:24;4.37;;;3.07;;
19887;SDS011;10106;51.332;12.336;2023-04-08T00:10:50;3.43;;;2.50;;
19887;SDS011;10106;51.332;12.336;2023-04-08T00:13:16;3.83;;;2.43;;
19887;SDS011;10106;51.332;12.336;2023-04-08T00:15:41;3.97;;;2.30;;
19887;SDS011;10106;51.332;12.336;2023-04-08T00:18:07;4.63;;;2.93;;
19887;SDS011;10106;51.332;12.336;2023-04-08T00:20:33;3.47;;;2.40;;
19887;SDS011;10106;51.332;12.336;2023-04-08T00:22:58;2.17;;;1.97;;
19887;SDS011;10106;51.332;12.336;2023-04-08T00:25:24;4.10;;;2.33;;
19887;SDS011;10106;51.332;12.336;2023-04-08T00:27:50;3.40;;;3.03;;
19887;SDS011;10106;51.332;12.336;2023-04-08T00:30:15;3.50;;;2.50;;
19887;SDS011;10106;51.332;12.336;2023-04-08T00:32:41;2.40;;;2.00;;
19887;SDS011;10106;51.332;12.336;2023-04-08T00:35:07;3.77;;;2.50;;
19887;SDS011;10106;51.332;12.336;2023-04-08T00:37:33;4.30;;;2.60;;
19887;SDS011;10106;51.332;12.336;2023-04-08T00:39:59;4.03;;;2.83;;
19887;SDS011;10106;51.332;12.336;2023-04-08T00:42:25;4.60;;;2.37;;
19887;SDS011;10106;51.332;12.336;2023-04-08T00:44:50;4.50;;;2.37;;
19887;SDS011;10106;51.332;12.336;2023-04-08T00:47:16;4.30;;;2.10;;
19887;SDS011;10106;51.332;12.336;2023-04-08T00:49:42;6.93;;;3.03;;
19887;SDS011;10106;51.332;12.336;2023-04-08T00:52:08;3.30;;;2.90;;
19887;SDS011;10106;51.332;12.336;2023-04-08T00:54:35;5.40;;;3.27;;
19887;SDS011;10106;51.332;12.336;2023-04-08T00:57:01;3.80;;;2.40;;
19887;SDS011;10106;51.332;12.336;2023-04-08T00:59:29;4.03;;;2.43;;
19887;SDS011;10106;51.332;12.336;2023-04-08T01:02:03;4.90;;;3.43;;
19887;SDS011;10106;51.332;12.336;2023-04-08T01:07:26;2.97;;;2.33;;
19887;SDS011;10106;51.332;12.336;2023-04-08T01:09:55;5.17;;;3.53;;
19887;SDS011;10106;51.332;12.336;2023-04-08T01:12:26;4.63;;;2.23;;
19887;SDS011;10106;51.332;12.336;2023-04-08T01:15:05;3.87;;;3.20;;
19887;SDS011;10106;51.332;12.336;2023-04-08T01:17:33;6.53;;;2.57;;
19887;SDS011;10106;51.332;12.336;2023-04-08T01:20:02;5.30;;;3.43;;
19887;SDS011;10106;51.332;12.336;2023-04-08T01:25:26;3.23;;;2.70;;
19887;SDS011;10106;51.332;12.336;2023-04-08T01:28:31;6.90;;;3.73;;
19887;SDS011;10106;51.332;12.336;2023-04-08T01:30:52;4.30;;;2.53;;
19887;SDS011;10106;51.332;12.336;2023-04-08T01:33:21;4.13;;;3.00;;
19887;SDS011;10106;51.332;12.336;2023-04-08T01:35:48;7.37;;;3.20;;
19887;SDS011;10106;51.332;12.336;2023-04-08T01:38:17;2.77;;;2.30;;
19887;SDS011;10106;51.332;12.336;2023-04-08T01:40:45;3.87;;;3.10;;
19887;SDS011;10106;51.332;12.336;2023-04-08T01:43:15;4.23;;;2.73;;
19887;SDS011;10106;51.332;12.336;2023-04-08T01:45:42;3.93;;;2.50;;
19887;SDS011;10106;51.332;12.336;2023-04-08T01:48:09;4.40;;;3.00;;
19887;SDS011;10106;51.332;12.336;2023-04-08T01:50:38;6.70;;;2.30;;
19887;SDS011;10106;51.332;12.336;2023-04-08T01:53:09;5.70;;;3.10;;
19887;SDS011;10106;51.332;12.336;2023-04-08T01:55:36;3.17;;;1.90;;
19887;SDS011;10106;51.332;12.336;2023-04-08T01:58:04;5.70;;;2.50;;
19887;SDS011;10106;51.332;12.336;2023-04-08T02:00:31;5.90;;;2.67;;
19887;SDS011;10106;51.332;12.336;2023-04-08T02:02:58;5.30;;;3.57;;
19887;SDS011;10106;51.332;12.336;2023-04-08T02:05:26;3.77;;;2.73;;
19887;SDS011;10106;51.332;12.336;2023-04-08T02:07:51;3.23;;;2.47;;
19887;SDS011;10106;51.332;12.336;2023-04-08T02:10:17;4.07;;;2.63;;
19887;SDS011;10106;51.332;12.336;2023-04-08T02:12:43;5.00;;;3.37;;
19887;SDS011;10106;51.332;12.336;2023-04-08T02:15:09;4.60;;;2.90;;
19887;SDS011;10106;51.332;12.336;2023-04-08T02:17:39;5.43;;;3.80;;
19887;SDS011;10106;51.332;12.336;2023-04-08T02:20:17;4.30;;;2.70;;
19887;SDS011;10106;51.332;12.336;2023-04-08T02:25:37;3.80;;;3.10;;
19887;SDS011;10106;51.332;12.336;2023-04-08T02:28:08;5.77;;;3.13;;
19887;SDS011;10106;51.332;12.336;2023-04-08T02:30:35;4.10;;;2.90;;
19887;SDS011;10106;51.332;12.336;2023-04-08T02:33:05;5.20;;;3.20;;
19887;SDS011;10106;51.332;12.336;2023-04-08T02:35:33;6.53;;;3.67;;
19887;SDS011;10106;51.332;12.336;2023-04-08T02:38:00;6.17;;;3.50;;
19887;SDS011;10106;51.332;12.336;2023-04-08T02:40:26;3.83;;;3.03;;
19887;SDS011;10106;51.332;12.336;2023-04-08T02:42:54;4.73;;;3.30;;
19887;SDS011;10106;51.332;12.336;2023-04-08T02:45:20;3.97;;;2.90;;
19887;SDS011;10106;51.332;12.336;2023-04-08T02:47:47;10.03;;;4.40;;
19887;SDS011;10106;51.332;12.336;2023-04-08T02:50:12;4.97;;;3.00;;
19887;SDS011;10106;51.332;12.336;2023-04-08T02:52:38;5.63;;;3.40;;
19887;SDS011;10106;51.332;12.336;2023-04-08T02:55:04;6.93;;;4.23;;
19887;SDS011;10106;51.332;12.336;2023-04-08T02:57:33;7.93;;;3.20;;
19887;SDS011;10106;51.332;12.336;2023-04-08T02:59:59;5.53;;;3.10;;
19887;SDS011;10106;51.332;12.336;2023-04-08T03:02:25;5.30;;;2.80;;
19887;SDS011;10106;51.332;12.336;2023-04-08T03:04:51;5.23;;;3.60;;
19887;SDS011;10106;51.332;12.336;2023-04-08T03:07:16;4.30;;;3.20;;
19887;SDS011;10106;51.332;12.336;2023-04-08T03:09:42;9.27;;;4.10;;
19887;SDS011;10106;51.332;12.336;2023-04-08T03:12:08;3.20;;;2.70;;
19887;SDS011;10106;51.332;12.336;2023-04-08T03:14:33;8.80;;;4.37;;
19887;SDS011;10106;51.332;12.336;2023-04-08T03:16:59;5.37;;;3.57;;
19887;SDS011;10106;51.332;12.336;2023-04-08T03:19:25;7.37;;;3.90;;
19887;SDS011;10106;51.332;12.336;2023-04-08T03:21:50;9.57;;;3.90;;
19887;SDS011;10106;51.332;12.336;2023-04-08T03:24:16;6.70;;;3.83;;
19887;SDS011;10106;51.332;12.336;2023-04-08T03:26:41;6.80;;;4.20;;
19887;SDS011;10106;51.332;12.336;2023-04-08T03:29:07;8.23;;;4.10;;
19887;SDS011;10106;51.332;12.336;2023-04-08T03:31:34;4.93;;;4.00;;
19887;SDS011;10106;51.332;12.336;2023-04-08T03:33:59;9.50;;;4.60;;
19887;SDS011;10106;51.332;12.336;2023-04-08T03:36:25;8.57;;;4.40;;
19887;SDS011;10106;51.332;12.336;2023-04-08T03:38:51;11.67;;;5.07;;
19887;SDS011;10106;51.332;12.336;2023-04-08T03:41:16;4.50;;;3.60;;
19887;SDS011;10106;51.332;12.336;2023-04-08T03:43:42;6.20;;;3.23;;
19887;SDS011;10106;51.332;12.336;2023-04-08T03:46:08;10.77;;;5.07;;
19887;SDS011;10106;51.332;12.336;2023-04-08T03:48:33;13.70;;;5.33;;
19887;SDS011;10106;51.332;12.336;2023-04-08T03:50:59;12.30;;;4.40;;
19887;SDS011;10106;51.332;12.336;2023-04-08T03:53:25;11.87;;;4.57;;
19887;SDS011;10106;51.332;12.336;2023-04-08T03:55:53;8.97;;;4.00;;
19887;SDS011;10106;51.332;12.336;2023-04-08T03:58:20;6.50;;;3.67;;
19887;SDS011;10106;51.332;12.336;2023-04-08T04:00:46;6.87;;;3.60;;
19887;SDS011;10106;51.332;12.336;2023-04-08T04:03:12;8.93;;;3.20;;
19887;SDS011;10106;51.332;12.336;2023-04-08T04:05:38;8.60;;;4.33;;
19887;SDS011;10106;51.332;12.336;2023-04-08T04:08:04;9.23;;;3.60;;
19887;SDS011;10106;51.332;12.336;2023-04-08T04:10:30;8.57;;;3.93;;
19887;SDS011;10106;51.332;12.336;2023-04-08T04:12:55;4.07;;;2.53;;
19887;SDS011;10106;51.332;12.336;2023-04-08T04:15:21;7.10;;;4.10;;
19887;SDS011;10106;51.332;12.336;2023-04-08T04:17:47;4.90;;;2.63;;
19887;SDS011;10106;51.332;12.336;2023-04-08T04:20:16;9.23;;;4.20;;
19887;SDS011;10106;51.332;12.336;2023-04-08T04:22:42;4.60;;;3.07;;
19887;SDS011;10106;51.332;12.336;2023-04-08T04:25:09;5.73;;;3.70;;
19887;SDS011;10106;51.332;12.336;2023-04-08T04:27:35;9.70;;;3.47;;
19887;SDS011;10106;51.332;12.336;2023-04-08T04:30:03;6.80;;;3.33;;
19887;SDS011;10106;51.332;12.336;2023-04-08T04:32:29;6.10;;;3.03;;
19887;SDS011;10106;51.332;12.336;2023-04-08T04:34:55;2.87;;;2.50;;
19887;SDS011;10106;51.332;12.336;2023-04-08T04:37:21;3.80;;;2.90;;
19887;SDS011;10106;51.332;12.336;2023-04-08T04:39:47;7.53;;;2.83;;
19887;SDS011;10106;51.332;12.336;2023-04-08T04:42:12;3.50;;;2.10;;
19887;SDS011;10106;51.332;12.336;2023-04-08T04:44:38;4.90;;;2.40;;
19887;SDS011;10106;51.332;12.336;2023-04-08T04:47:04;5.80;;;3.20;;
19887;SDS011;10106;51.332;12.336;2023-04-08T04:49:29;5.90;;;3.20;;
19887;SDS011;10106;51.332;12.336;2023-04-08T04:51:55;7.47;;;3.30;;
19887;SDS011;10106;51.332;12.336;2023-04-08T04:54:21;7.57;;;2.70;;
19887;SDS011;10106;51.332;12.336;2023-04-08T04:56:46;5.30;;;2.93;;
19887;SDS011;10106;51.332;12.336;2023-04-08T04:59:12;4.77;;;2.73;;
19887;SDS011;10106;51.332;12.336;2023-04-08T05:06:48;3.07;;;2.07;;
19887;SDS011;10106;51.332;12.336;2023-04-08T05:09:14;8.50;;;3.80;;
19887;SDS011;10106;51.332;12.336;2023-04-08T05:11:40;4.83;;;4.37;;
19887;SDS011;10106;51.332;12.336;2023-04-08T05:14:06;3.33;;;2.90;;
19887;SDS011;10106;51.332;12.336;2023-04-08T05:16:32;6.00;;;2.93;;
19887;SDS011;10106;51.332;12.336;2023-04-08T05:18:58;8.27;;;3.30;;
19887;SDS011;10106;51.332;12.336;2023-04-08T05:21:24;7.70;;;3.63;;
19887;SDS011;10106;51.332;12.336;2023-04-08T05:23:50;6.10;;;3.23;;
19887;SDS011;10106;51.332;12.336;2023-04-08T05:26:18;6.37;;;3.70;;
19887;SDS011;10106;51.332;12.336;2023-04-08T05:28:45;2.63;;;1.90;;
19887;SDS011;10106;51.332;12.336;2023-04-08T05:31:14;5.00;;;2.57;;
19887;SDS011;10106;51.332;12.336;2023-04-08T05:33:40;4.70;;;3.33;;
19887;SDS011;10106;51.332;12.336;2023-04-08T05:36:06;7.20;;;3.43;;
19887;SDS011;10106;51.332;12.336;2023-04-08T05:38:32;4.17;;;2.67;;
19887;SDS011;10106;51.332;12.336;2023-04-08T05:40:58;4.67;;;2.50;;
19887;SDS011;10106;51.332;12.336;2023-04-08T05:43:23;5.10;;;2.63;;
19887;SDS011;10106;51.332;12.336;2023-04-08T05:45:49;10.90;;;3.00;;
19887;SDS011;10106;51.332;12.336;2023-04-08T05:48:15;5.80;;;3.07;;
19887;SDS011;10106;51.332;12.336;2023-04-08T05:50:41;6.30;;;3.20;;
19887;SDS011;10106;51.332;12.336;2023-04-08T05:53:08;4.47;;;2.90;;
19887;SDS011;10106;51.332;12.336;2023-04-08T05:55:34;3.90;;;2.40;;
19887;SDS011;10106;51.332;12.336;2023-04-08T05:57:59;5.57;;;3.03;;
19887;SDS011;10106;51.332;12.336;2023-04-08T06:00:25;5.87;;;3.17;;
19887;SDS011;10106;51.332;12.336;2023-04-08T06:02:51;8.87;;;4.20;;
19887;SDS011;10106;51.332;12.336;2023-04-08T06:05:17;6.20;;;3.33;;
19887;SDS011;10106;51.332;12.336;2023-04-08T06:07:43;4.77;;;3.30;;
19887;SDS011;10106;51.332;12.336;2023-04-08T06:10:09;4.63;;;3.37;;
19887;SDS011;10106;51.332;12.336;2023-04-08T06:12:35;2.83;;;2.23;;
19887;SDS011;10106;51.332;12.336;2023-04-08T06:15:02;4.80;;;2.57;;
19887;SDS011;10106;51.332;12.336;2023-04-08T06:17:29;5.30;;;3.10;;
19887;SDS011;10106;51.332;12.336;2023-04-08T06:19:55;3.33;;;2.67;;
19887;SDS011;10106;51.332;12.336;2023-04-08T06:22:20;3.30;;;2.67;;
19887;SDS011;10106;51.332;12.336;2023-04-08T06:24:46;5.03;;;3.30;;
19887;SDS011;10106;51.332;12.336;2023-04-08T06:27:13;3.40;;;2.50;;
19887;SDS011;10106;51.332;12.336;2023-04-08T06:29:38;3.23;;;2.40;;
19887;SDS011;10106;51.332;12.336;2023-04-08T06:32:05;5.83;;;2.73;;
19887;SDS011;10106;51.332;12.336;2023-04-08T06:34:31;6.80;;;4.00;;
19887;SDS011;10106;51.332;12.336;2023-04-08T06:36:56;7.50;;;3.03;;
19887;SDS011;10106;51.332;12.336;2023-04-08T06:39:22;6.80;;;3.53;;
19887;SDS011;10106;51.332;12.336;2023-04-08T06:41:48;6.93;;;3.33;;
19887;SDS011;10106;51.332;12.336;2023-04-08T06:44:14;4.87;;;3.77;;
19887;SDS011;10106;51.332;12.336;2023-04-08T06:46:40;9.27;;;4.17;;
19887;SDS011;10106;51.332;12.336;2023-04-08T06:49:06;5.17;;;4.00;;
19887;SDS011;10106;51.332;12.336;2023-04-08T06:51:32;13.43;;;4.50;;
19887;SDS011;10106;51.332;12.336;2023-04-08T06:53:57;8.43;;;4.77;;
19887;SDS011;10106;51.332;12.336;2023-04-08T06:56:23;14.47;;;4.10;;
19887;SDS011;10106;51.332;12.336;2023-04-08T06:58:50;11.87;;;4.40;;
19887;SDS011;10106;51.332;12.336;2023-04-08T07:01:16;10.60;;;4.40;;
19887;SDS011;10106;51.332;12.336;2023-04-08T07:03:42;5.17;;;3.40;;
19887;SDS011;10106;51.332;12.336;2023-04-08T07:06:08;18.83;;;4.60;;
19887;SDS011;10106;51.332;12.336;2023-04-08T07:08:33;9.13;;;4.90;;
19887;SDS011;10106;51.332;12.336;2023-04-08T07:11:00;9.27;;;4.73;;
19887;SDS011;10106;51.332;12.336;2023-04-08T07:13:26;9.00;;;5.30;;
19887;SDS011;10106;51.332;12.336;2023-04-08T07:15:52;9.73;;;4.70;;
19887;SDS011;10106;51.332;12.336;2023-04-08T07:18:17;13.00;;;4.70;;
19887;SDS011;10106;51.332;12.336;2023-04-08T07:20:49;16.07;;;6.27;;
19887;SDS011;10106;51.332;12.336;2023-04-08T07:23:15;10.93;;;6.53;;
19887;SDS011;10106;51.332;12.336;2023-04-08T07:25:40;11.90;;;4.30;;
19887;SDS011;10106;51.332;12.336;2023-04-08T07:28:06;12.10;;;5.53;;
19887;SDS011;10106;51.332;12.336;2023-04-08T07:30:32;9.73;;;5.07;;
19887;SDS011;10106;51.332;12.336;2023-04-08T07:32:57;19.37;;;5.33;;
19887;SDS011;10106;51.332;12.336;2023-04-08T07:35:23;11.67;;;5.40;;
19887;SDS011;10106;51.332;12.336;2023-04-08T07:37:50;11.50;;;4.70;;
19887;SDS011;10106;51.332;12.336;2023-04-08T07:40:17;15.13;;;6.20;;
19887;SDS011;10106;51.332;12.336;2023-04-08T07:42:42;16.00;;;6.27;;
19887;SDS011;10106;51.332;12.336;2023-04-08T07:45:08;14.83;;;6.47;;
19887;SDS011;10106;51.332;12.336;2023-04-08T07:47:34;17.07;;;7.50;;
19887;SDS011;10106;51.332;12.336;2023-04-08T07:50:01;20.47;;;5.63;;
19887;SDS011;10106;51.332;12.336;2023-04-08T07:52:28;14.33;;;6.53;;
19887;SDS011;10106;51.332;12.336;2023-04-08T07:54:55;16.47;;;6.80;;
19887;SDS011;10106;51.332;12.336;2023-04-08T07:57:20;18.30;;;7.57;;
19887;SDS011;10106;51.332;12.336;2023-04-08T07:59:46;18.57;;;7.10;;
19887;SDS011;10106;51.332;12.336;2023-04-08T08:02:12;21.67;;;7.33;;
19887;SDS011;10106;51.332;12.336;2023-04-08T08:04:37;20.67;;;8.17;;
19887;SDS011;10106;51.332;12.336;2023-04-08T08:07:03;12.60;;;6.10;;
19887;SDS011;10106;51.332;12.336;2023-04-08T08:09:29;17.80;;;7.17;;
19887;SDS011;10106;51.332;12.336;2023-04-08T08:11:55;16.67;;;7.20;;
19887;SDS011;10106;51.332;12.336;2023-04-08T08:14:21;19.93;;;6.90;;
19887;SDS011;10106;51.332;12.336;2023-04-08T08:16:47;23.23;;;8.40;;
19887;SDS011;10106;51.332;12.336;2023-04-08T08:19:13;24.70;;;9.83;;
19887;SDS011;10106;51.332;12.336;2023-04-08T08:21:39;20.33;;;8.13;;
19887;SDS011;10106;51.332;12.336;2023-04-08T08:24:05;24.87;;;8.93;;
19887;SDS011;10106;51.332;12.336;2023-04-08T08:26:33;19.80;;;8.80;;
19887;SDS011;10106;51.332;12.336;2023-04-08T08:29:00;21.53;;;8.30;;
19887;SDS011;10106;51.332;12.336;2023-04-08T08:31:26;17.93;;;7.70;;
19887;SDS011;10106;51.332;12.336;2023-04-08T08:33:51;18.77;;;9.00;;
19887;SDS011;10106;51.332;12.336;2023-04-08T08:36:17;18.77;;;8.30;;
19887;SDS011;10106;51.332;12.336;2023-04-08T08:38:43;19.60;;;8.67;;
19887;SDS011;10106;51.332;12.336;2023-04-08T08:41:09;17.23;;;9.00;;
19887;SDS011;10106;51.332;12.336;2023-04-08T08:43:34;20.07;;;9.47;;
19887;SDS011;10106;51.332;12.336;2023-04-08T08:46:01;17.73;;;8.20;;
19887;SDS011;10106;51.332;12.336;2023-04-08T08:48:27;14.73;;;8.93;;
19887;SDS011;10106;51.332;12.336;2023-04-08T08:50:53;19.40;;;9.40;;
19887;SDS011;10106;51.332;12.336;2023-04-08T08:53:19;17.20;;;8.80;;
19887;SDS011;10106;51.332;12.336;2023-04-08T08:55:47;18.53;;;8.50;;
19887;SDS011;10106;51.332;12.336;2023-04-08T08:58:13;21.10;;;8.73;;
19887;SDS011;10106;51.332;12.336;2023-04-08T09:00:40;24.00;;;9.20;;
19887;SDS011;10106;51.332;12.336;2023-04-08T09:03:19;27.33;;;10.40;;
19887;SDS011;10106;51.332;12.336;2023-04-08T09:08:32;17.53;;;8.67;;
19887;SDS011;10106;51.332;12.336;2023-04-08T09:11:15;21.20;;;9.10;;
19887;SDS011;10106;51.332;12.336;2023-04-08T09:13:42;17.50;;;8.33;;
19887;SDS011;10106;51.332;12.336;2023-04-08T09:16:10;20.30;;;8.93;;
19887;SDS011;10106;51.332;12.336;2023-04-08T09:18:41;19.27;;;9.63;;
19887;SDS011;10106;51.332;12.336;2023-04-08T09:21:09;19.70;;;8.97;;
19887;SDS011;10106;51.332;12.336;2023-04-08T09:26:15;18.33;;;9.33;;
19887;SDS011;10106;51.332;12.336;2023-04-08T09:28:59;22.20;;;9.43;;
19887;SDS011;10106;51.332;12.336;2023-04-08T09:31:30;13.90;;;8.40;;
19887;SDS011;10106;51.332;12.336;2023-04-08T09:34:08;22.90;;;8.73;;
19887;SDS011;10106;51.332;12.336;2023-04-08T09:36:41;20.50;;;8.20;;
19887;SDS011;10106;51.332;12.336;2023-04-08T09:39:12;20.60;;;9.20;;
19887;SDS011;10106;51.332;12.336;2023-04-08T09:41:38;24.27;;;9.47;;
19887;SDS011;10106;51.332;12.336;2023-04-08T09:44:05;21.00;;;9.37;;
19887;SDS011;10106;51.332;12.336;2023-04-08T09:49:26;21.27;;;8.40;;
19887;SDS011;10106;51.332;12.336;2023-04-08T09:52:19;20.90;;;10.10;;
19887;SDS011;10106;51.332;12.336;2023-04-08T10:00:08;24.20;;;10.27;;
19887;SDS011;10106;51.332;12.336;2023-04-08T10:05:53;21.67;;;9.30;;
19887;SDS011;10106;51.332;12.336;2023-04-08T10:08:21;28.43;;;10.07;;
19887;SDS011;10106;51.332;12.336;2023-04-08T10:10:48;19.17;;;9.27;;
19887;SDS011;10106;51.332;12.336;2023-04-08T10:13:15;20.03;;;9.97;;
19887;SDS011;10106;51.332;12.336;2023-04-08T10:15:41;24.77;;;11.47;;
19887;SDS011;10106;51.332;12.336;2023-04-08T10:23:04;19.77;;;9.80;;
19887;SDS011;10106;51.332;12.336;2023-04-08T10:25:32;18.37;;;9.60;;
19887;SDS011;10106;51.332;12.336;2023-04-08T10:27:58;18.93;;;9.77;;
19887;SDS011;10106;51.332;12.336;2023-04-08T10:32:57;17.80;;;9.27;;
19887;SDS011;10106;51.332;12.336;2023-04-08T10:35:31;23.57;;;9.90;;
19887;SDS011;10106;51.332;12.336;2023-04-08T10:37:59;26.77;;;10.83;;
19887;SDS011;10106;51.332;12.336;2023-04-08T10:40:26;20.40;;;10.13;;
19887;SDS011;10106;51.332;12.336;2023-04-08T10:42:55;24.13;;;10.03;;
19887;SDS011;10106;51.332;12.336;2023-04-08T10:45:24;24.87;;;10.30;;
19887;SDS011;10106;51.332;12.336;2023-04-08T10:47:50;23.30;;;9.93;;
19887;SDS011;10106;51.332;12.336;2023-04-08T10:50:16;27.43;;;12.53;;
19887;SDS011;10106;51.332;12.336;2023-04-08T10:52:46;23.70;;;10.33;;
19887;SDS011;10106;51.332;12.336;2023-04-08T10:55:25;22.07;;;9.60;;
19887;SDS011;10106;51.332;12.336;2023-04-08T10:57:54;23.40;;;10.40;;
19887;SDS011;10106;51.332;12.336;2023-04-08T11:00:32;22.83;;;10.23;;
19887;SDS011;10106;51.332;12.336;2023-04-08T11:03:03;24.30;;;10.37;;
19887;SDS011;10106;51.332;12.336;2023-04-08T11:05:30;21.83;;;9.77;;
19887;SDS011;10106;51.332;12.336;2023-04-08T11:07:57;20.67;;;9.83;;
19887;SDS011;10106;51.332;12.336;2023-04-08T11:10:24;25.33;;;12.10;;
19887;SDS011;10106;51.332;12.336;2023-04-08T11:12:51;21.43;;;10.57;;
19887;SDS011;10106;51.332;12.336;2023-04-08T11:15:19;18.80;;;9.30;;
19887;SDS011;10106;51.332;12.336;2023-04-08T11:17:45;18.10;;;9.70;;
19887;SDS011;10106;51.332;12.336;2023-04-08T11:20:12;21.93;;;10.40;;
19887;SDS011;10106;51.332;12.336;2023-04-08T11:22:38;20.90;;;10.20;;
19887;SDS011;10106;51.332;12.336;2023-04-08T11:25:04;21.13;;;10.97;;
19887;SDS011;10106;51.332;12.336;2023-04-08T11:27:32;20.77;;;10.37;;
19887;SDS011;10106;51.332;12.336;2023-04-08T11:30:00;25.40;;;11.60;;
19887;SDS011;10106;51.332;12.336;2023-04-08T11:32:26;21.83;;;9.27;;
19887;SDS011;10106;51.332;12.336;2023-04-08T11:34:58;22.40;;;11.00;;
19887;SDS011;10106;51.332;12.336;2023-04-08T11:37:25;30.73;;;10.93;;
19887;SDS011;10106;51.332;12.336;2023-04-08T11:39:53;22.70;;;9.53;;
19887;SDS011;10106;51.332;12.336;2023-04-08T11:42:27;19.67;;;10.30;;
19887;SDS011;10106;51.332;12.336;2023-04-08T11:44:54;16.87;;;8.80;;
19887;SDS011;10106;51.332;12.336;2023-04-08T11:47:20;24.03;;;9.70;;
19887;SDS011;10106;51.332;12.336;2023-04-08T11:49:46;25.27;;;11.70;;
19887;SDS011;10106;51.332;12.336;2023-04-08T11:52:12;17.10;;;8.97;;
19887;SDS011;10106;51.332;12.336;2023-04-08T11:54:42;22.40;;;10.93;;
19887;SDS011;10106;51.332;12.336;2023-04-08T11:57:08;18.80;;;9.47;;
19887;SDS011;10106;51.332;12.336;2023-04-08T11:59:37;20.20;;;9.10;;
19887;SDS011;10106;51.332;12.336;2023-04-08T12:02:03;18.67;;;9.83;;
19887;SDS011;10106;51.332;12.336;2023-04-08T12:04:29;18.60;;;10.03;;
19887;SDS011;10106;51.332;12.336;2023-04-08T12:06:55;22.00;;;10.70;;
19887;SDS011;10106;51.332;12.336;2023-04-08T12:09:21;15.43;;;8.73;;
19887;SDS011;10106;51.332;12.336;2023-04-08T12:11:47;20.83;;;9.27;;
19887;SDS011;10106;51.332;12.336;2023-04-08T12:14:13;16.53;;;8.53;;
19887;SDS011;10106;51.332;12.336;2023-04-08T12:16:39;18.27;;;10.47;;
19887;SDS011;10106;51.332;12.336;2023-04-08T12:19:05;19.43;;;9.03;;
19887;SDS011;10106;51.332;12.336;2023-04-08T12:21:31;19.60;;;9.70;;
19887;SDS011;10106;51.332;12.336;2023-04-08T12:23:58;16.53;;;9.07;;
19887;SDS011;10106;51.332;12.336;2023-04-08T12:26:23;19.67;;;9.33;;
19887;SDS011;10106;51.332;12.336;2023-04-08T12:28:49;19.70;;;9.20;;
19887;SDS011;10106;51.332;12.336;2023-04-08T12:31:15;16.20;;;8.63;;
19887;SDS011;10106;51.332;12.336;2023-04-08T12:33:40;19.93;;;9.50;;
19887;SDS011;10106;51.332;12.336;2023-04-08T12:36:06;18.93;;;8.97;;
19887;SDS011;10106;51.332;12.336;2023-04-08T12:38:32;19.13;;;9.53;;
19887;SDS011;10106;51.332;12.336;2023-04-08T12:40:57;13.53;;;7.13;;
19887;SDS011;10106;51.332;12.336;2023-04-08T12:43:23;18.30;;;7.90;;
19887;SDS011;10106;51.332;12.336;2023-04-08T12:45:49;19.10;;;9.33;;
19887;SDS011;10106;51.332;12.336;2023-04-08T12:48:15;16.87;;;8.43;;
19887;SDS011;10106;51.332;12.336;2023-04-08T12:50:41;14.60;;;7.73;;
19887;SDS011;10106;51.332;12.336;2023-04-08T12:53:07;15.63;;;7.73;;
19887;SDS011;10106;51.332;12.336;2023-04-08T12:55:33;14.00;;;7.03;;
19887;SDS011;10106;51.332;12.336;2023-04-08T12:57:58;11.73;;;7.03;;
19887;SDS011;10106;51.332;12.336;2023-04-08T13:00:24;15.43;;;7.47;;
19887;SDS011;10106;51.332;12.336;2023-04-08T13:02:50;13.10;;;6.80;;
19887;SDS011;10106;51.332;12.336;2023-04-08T13:05:16;14.97;;;7.90;;
19887;SDS011;10106;51.332;12.336;2023-04-08T13:07:42;14.93;;;8.70;;
19887;SDS011;10106;51.332;12.336;2023-04-08T13:10:07;16.83;;;8.30;;
19887;SDS011;10106;51.332;12.336;2023-04-08T13:12:33;17.37;;;8.80;;
19887;SDS011;10106;51.332;12.336;2023-04-08T13:14:59;14.27;;;8.20;;
19887;SDS011;10106;51.332;12.336;2023-04-08T13:17:25;15.90;;;8.43;;
19887;SDS011;10106;51.332;12.336;2023-04-08T13:19:52;22.77;;;8.93;;
19887;SDS011;10106;51.332;12.336;2023-04-08T13:22:17;17.27;;;8.27;;
19887;SDS011;10106;51.332;12.336;2023-04-08T13:24:43;17.83;;;8.60;;
19887;SDS011;10106;51.332;12.336;2023-04-08T13:27:08;17.50;;;9.40;;
19887;SDS011;10106;51.332;12.336;2023-04-08T13:29:34;16.93;;;8.53;;
19887;SDS011;10106;51.332;12.336;2023-04-08T13:32:00;21.37;;;9.40;;
19887;SDS011;10106;51.332;12.336;2023-04-08T13:34:26;16.10;;;8.77;;
19887;SDS011;10106;51.332;12.336;2023-04-08T13:36:51;20.20;;;8.50;;
19887;SDS011;10106;51.332;12.336;2023-04-08T13:39:17;20.63;;;9.60;;
19887;SDS011;10106;51.332;12.336;2023-04-08T13:41:43;18.27;;;8.37;;
19887;SDS011;10106;51.332;12.336;2023-04-08T13:44:08;18.37;;;8.63;;
19887;SDS011;10106;51.332;12.336;2023-04-08T13:46:34;17.70;;;9.37;;
19887;SDS011;10106;51.332;12.336;2023-04-08T13:49:00;16.30;;;9.53;;
19887;SDS011;10106;51.332;12.336;2023-04-08T13:51:27;14.90;;;8.70;;
19887;SDS011;10106;51.332;12.336;2023-04-08T13:53:53;14.07;;;8.00;;
19887;SDS011;10106;51.332;12.336;2023-04-08T13:56:18;17.40;;;8.57;;
19887;SDS011;10106;51.332;12.336;2023-04-08T13:58:45;20.80;;;7.70;;
19887;SDS011;10106;51.332;12.336;2023-04-08T14:01:11;16.47;;;8.60;;
19887;SDS011;10106;51.332;12.336;2023-04-08T14:03:37;18.47;;;8.83;;
19887;SDS011;10106;51.332;12.336;2023-04-08T14:06:02;18.40;;;8.53;;
19887;SDS011;10106;51.332;12.336;2023-04-08T14:08:28;18.30;;;8.00;;
19887;SDS011;10106;51.332;12.336;2023-04-08T14:10:54;13.87;;;7.50;;
19887;SDS011;10106;51.332;12.336;2023-04-08T14:13:20;18.90;;;8.60;;
19887;SDS011;10106;51.332;12.336;2023-04-08T14:15:46;14.70;;;7.03;;
19887;SDS011;10106;51.332;12.336;2023-04-08T14:18:13;18.67;;;7.93;;
19887;SDS011;10106;51.332;12.336;2023-04-08T14:20:41;18.30;;;8.20;;
19887;SDS011;10106;51.332;12.336;2023-04-08T14:23:07;14.20;;;7.30;;
19887;SDS011;10106;51.332;12.336;2023-04-08T14:25:32;17.60;;;8.03;;
19887;SDS011;10106;51.332;12.336;2023-04-08T14:27:58;13.27;;;7.27;;
19887;SDS011;10106;51.332;12.336;2023-04-08T14:30:24;15.70;;;8.43;;
19887;SDS011;10106;51.332;12.336;2023-04-08T14:32:50;12.20;;;7.43;;
19887;SDS011;10106;51.332;12.336;2023-04-08T14:35:16;12.17;;;6.90;;
19887;SDS011;10106;51.332;12.336;2023-04-08T14:37:42;13.60;;;6.83;;
19887;SDS011;10106;51.332;12.336;2023-04-08T14:40:08;14.23;;;7.30;;
19887;SDS011;10106;51.332;12.336;2023-04-08T14:42:34;14.97;;;7.53;;
19887;SDS011;10106;51.332;12.336;2023-04-08T14:45:00;16.10;;;7.53;;
19887;SDS011;10106;51.332;12.336;2023-04-08T14:47:27;14.50;;;7.77;;
19887;SDS011;10106;51.332;12.336;2023-04-08T14:49:52;13.47;;;6.80;;
19887;SDS011;10106;51.332;12.336;2023-04-08T14:52:18;12.17;;;6.17;;
19887;SDS011;10106;51.332;12.336;2023-04-08T14:54:44;9.63;;;6.00;;
19887;SDS011;10106;51.332;12.336;2023-04-08T14:57:11;11.60;;;6.50;;
19887;SDS011;10106;51.332;12.336;2023-04-08T14:59:37;10.87;;;6.10;;
19887;SDS011;10106;51.332;12.336;2023-04-08T15:02:02;13.10;;;7.07;;